Time;durP1;ratioP1;P1;durP2;ratioP2;P2;SDS_P1;SDS_P2;PMS_P1;PMS_P2;Temp;Humidity;BMP_temperature;BMP_pressure;BME280_temperature;BME280_humidity;BME280_pressure;Samples;Min_cycle;Max_cycle;Signal;HPM_P1;HPM_P2
2022/07/22 00:00:11;;;;;;;15.83;12.23;;;22.30;1.00;;;;;;5107950;28;20277;-75
2022/07/22 00:02:37;;;;;;;16.40;12.20;;;22.20;1.00;;;;;;5111585;28;20408;-75
2022/07/22 00:05:03;;;;;;;13.33;11.53;;;22.20;1.00;;;;;;5109345;28;20795;-75
2022/07/22 00:07:28;;;;;;;13.20;11.30;;;22.20;1.00;;;;;;5111271;28;20223;-75
2022/07/22 00:09:54;;;;;;;12.63;10.63;;;22.20;1.00;;;;;;5111338;28;20484;-75
2022/07/22 00:12:19;;;;;;;15.60;11.80;;;22.10;1.00;;;;;;5110867;28;20205;-77
2022/07/22 00:14:45;;;;;;;11.80;10.60;;;22.30;1.00;;;;;;5092908;28;20171;-75
2022/07/22 00:17:11;;;;;;;18.10;11.23;;;22.10;1.00;;;;;;5110572;28;20632;-75
2022/07/22 00:19:37;;;;;;;14.90;11.43;;;22.10;1.00;;;;;;5107966;28;20201;-75
2022/07/22 00:22:03;;;;;;;13.80;11.37;;;22.10;1.00;;;;;;5091296;28;20239;-75
2022/07/22 00:24:28;;;;;;;15.97;11.57;;;22.10;1.00;;;;;;5111030;28;20918;-75
2022/07/22 00:26:54;;;;;;;13.90;11.20;;;22.10;1.00;;;;;;5112080;28;20352;-75
2022/07/22 00:29:20;;;;;;;16.47;11.40;;;22.00;1.00;;;;;;5109706;28;20923;-75
2022/07/22 00:31:45;;;;;;;15.63;11.23;;;22.10;1.00;;;;;;5091927;28;20634;-75
2022/07/22 00:34:11;;;;;;;16.07;11.60;;;21.80;1.00;;;;;;5090309;28;20173;-75
2022/07/22 00:36:36;;;;;;;16.27;11.83;;;21.70;1.00;;;;;;5091474;28;20186;-75
2022/07/22 00:39:03;;;;;;;15.27;11.30;;;21.60;1.00;;;;;;5109770;28;20281;-75
2022/07/22 00:41:28;;;;;;;15.90;11.63;;;21.50;1.00;;;;;;5109852;28;20185;-75
2022/07/22 00:44:01;;;;;;;15.80;11.60;;;21.40;1.00;;;;;;5092114;28;20799;-75
2022/07/22 00:46:28;;;;;;;12.43;10.60;;;21.30;1.00;;;;;;5091715;28;21002;-75
2022/07/22 00:48:55;;;;;;;15.93;10.73;;;21.50;1.00;;;;;;5109774;28;20943;-75
2022/07/22 00:51:22;;;;;;;13.67;11.00;;;21.20;1.00;;;;;;5100314;28;20476;-74
2022/07/22 00:53:48;;;;;;;15.13;11.20;;;21.20;1.00;;;;;;5091776;28;20631;-75
2022/07/22 00:56:15;;;;;;;15.90;11.80;;;21.10;1.00;;;;;;5088481;28;20709;-75
2022/07/22 00:58:41;;;;;;;13.33;11.23;;;21.00;1.00;;;;;;5109192;28;20837;-75
2022/07/22 01:01:07;;;;;;;16.50;11.80;;;21.00;1.00;;;;;;5091172;28;20439;-75
2022/07/22 01:03:33;;;;;;;15.10;10.70;;;21.10;1.00;;;;;;5092538;28;20234;-75
2022/07/22 01:05:58;;;;;;;14.53;10.90;;;21.20;1.00;;;;;;5092320;28;20752;-75
2022/07/22 01:08:24;;;;;;;17.67;11.27;;;21.10;1.00;;;;;;5108990;28;20206;-75
2022/07/22 01:10:49;;;;;;;13.37;10.50;;;21.10;1.00;;;;;;5090758;28;20183;-75
2022/07/22 01:13:15;;;;;;;12.00;10.17;;;21.20;1.00;;;;;;5091853;28;20175;-75
2022/07/22 01:15:41;;;;;;;14.50;10.60;;;21.30;1.00;;;;;;5090025;28;20226;-75
2022/07/22 01:18:06;;;;;;;15.80;10.80;;;21.20;1.00;;;;;;5109141;28;20206;-75
2022/07/22 01:20:32;;;;;;;14.00;10.80;;;21.20;1.00;;;;;;5091707;28;20175;-75
2022/07/22 01:22:57;;;;;;;14.77;11.20;;;21.20;1.00;;;;;;5109617;28;20178;-75
2022/07/22 01:25:23;;;;;;;12.07;10.27;;;21.20;1.00;;;;;;5090099;28;21540;-75
2022/07/22 01:27:49;;;;;;;13.57;11.00;;;21.20;1.00;;;;;;5091852;28;20327;-75
2022/07/22 01:30:14;;;;;;;13.87;10.43;;;21.00;1.00;;;;;;5109237;28;20350;-75
2022/07/22 01:32:40;;;;;;;15.10;10.90;;;21.00;1.00;;;;;;5109832;28;20179;-74
2022/07/22 01:35:06;;;;;;;12.40;10.53;;;21.00;1.00;;;;;;5109146;28;20198;-75
2022/07/22 01:37:33;;;;;;;13.07;11.00;;;21.00;1.00;;;;;;5090759;28;20206;-75
2022/07/22 01:39:59;;;;;;;14.73;10.70;;;21.00;1.00;;;;;;5108574;28;20872;-75
2022/07/22 01:42:24;;;;;;;19.07;11.43;;;21.00;1.00;;;;;;5108899;28;20492;-75
2022/07/22 01:44:50;;;;;;;16.37;11.53;;;21.00;1.00;;;;;;5108232;28;20171;-74
2022/07/22 01:47:15;;;;;;;11.77;10.57;;;21.10;1.00;;;;;;5109040;28;20166;-75
2022/07/22 01:49:41;;;;;;;14.83;11.33;;;21.00;1.00;;;;;;5108693;28;20201;-75
2022/07/22 01:52:07;;;;;;;15.73;10.67;;;20.90;1.00;;;;;;5108301;28;20171;-75
2022/07/22 01:54:32;;;;;;;14.50;11.33;;;20.90;1.00;;;;;;5091286;28;20208;-76
2022/07/22 01:56:58;;;;;;;16.73;10.87;;;19.90;1.00;;;;;;5105062;28;20257;-75
2022/07/22 02:01:56;;;;;;;15.93;11.00;;;20.80;1.00;;;;;;5028080;28;20208;-76
2022/07/22 02:04:22;;;;;;;16.00;11.43;;;20.80;1.00;;;;;;5036158;28;20416;-77
2022/07/22 02:06:47;;;;;;;12.63;10.03;;;20.80;1.00;;;;;;5044882;28;20190;-76
2022/07/22 02:09:13;;;;;;;12.57;10.93;;;20.80;1.00;;;;;;5046506;28;20671;-76
2022/07/22 02:11:38;;;;;;;14.30;11.17;;;20.80;1.00;;;;;;5054180;28;20334;-77
2022/07/22 02:14:04;;;;;;;16.23;10.90;;;20.80;1.00;;;;;;5039945;28;20319;-76
2022/07/22 02:16:30;;;;;;;14.53;11.17;;;20.70;1.00;;;;;;5035589;28;20204;-76
2022/07/22 02:18:55;;;;;;;12.30;10.53;;;20.70;1.00;;;;;;5038465;28;20209;-76
2022/07/22 02:21:21;;;;;;;13.27;10.70;;;20.70;1.00;;;;;;5051965;28;20209;-77
2022/07/22 02:23:47;;;;;;;17.57;10.50;;;20.70;1.00;;;;;;5041517;28;20169;-76
2022/07/22 02:26:12;;;;;;;14.63;11.20;;;20.60;1.00;;;;;;5037834;28;20179;-77
2022/07/22 02:28:38;;;;;;;14.83;11.60;;;20.60;1.00;;;;;;5042187;28;20559;-77
2022/07/22 02:31:03;;;;;;;15.97;11.97;;;20.50;1.00;;;;;;5033166;28;20205;-75
2022/07/22 02:33:29;;;;;;;12.60;10.57;;;20.40;1.00;;;;;;5045314;28;20209;-76
2022/07/22 02:35:55;;;;;;;14.47;11.53;;;20.40;1.00;;;;;;5032159;28;20196;-76
2022/07/22 02:38:21;;;;;;;16.37;11.40;;;20.30;1.00;;;;;;5041103;28;20267;-76
2022/07/22 02:40:47;;;;;;;15.33;11.60;;;20.20;1.00;;;;;;5030914;28;20495;-75
2022/07/22 02:43:12;;;;;;;13.20;10.80;;;20.10;1.00;;;;;;5039389;28;20177;-77
2022/07/22 02:45:38;;;;;;;17.83;11.03;;;20.10;1.00;;;;;;5038997;28;20258;-76
2022/07/22 02:48:04;;;;;;;13.13;10.87;;;20.10;1.00;;;;;;5029308;28;20244;-77
2022/07/22 02:50:29;;;;;;;12.47;10.67;;;20.10;1.00;;;;;;5044729;28;20220;-77
2022/07/22 02:52:55;;;;;;;13.53;10.90;;;20.10;1.00;;;;;;5029892;28;20408;-77
2022/07/22 02:55:20;;;;;;;14.43;11.60;;;20.10;1.00;;;;;;5036809;28;20181;-77
2022/07/22 02:57:46;;;;;;;14.30;11.47;;;20.00;1.00;;;;;;5054705;28;20217;-77
2022/07/22 03:00:13;;;;;;;13.83;11.70;;;19.90;1.00;;;;;;5066195;22;20228;-76
2022/07/22 03:02:39;;;;;;;13.53;10.90;;;19.90;1.00;;;;;;5016046;28;20552;-74
2022/07/22 03:05:05;;;;;;;15.57;11.37;;;19.90;1.00;;;;;;5083166;22;20503;-74
2022/07/22 03:07:37;;;;;;;17.43;11.77;;;19.90;1.00;;;;;;5047447;28;20443;-77
2022/07/22 03:10:05;;;;;;;15.00;11.70;;;19.90;1.00;;;;;;5115895;22;20505;-77
2022/07/22 03:12:30;;;;;;;16.80;10.80;;;19.90;1.00;;;;;;5061525;22;20500;-77
2022/07/22 03:14:56;;;;;;;15.23;11.60;;;19.90;1.00;;;;;;5004946;28;20508;-76
2022/07/22 03:17:22;;;;;;;14.77;11.37;;;19.90;1.00;;;;;;5001216;28;20201;-77
2022/07/22 03:19:47;;;;;;;14.10;10.80;;;20.00;1.00;;;;;;5006955;28;20198;-75
2022/07/22 03:22:13;;;;;;;15.33;11.73;;;20.00;1.00;;;;;;4980488;28;20676;-77
2022/07/22 03:24:38;;;;;;;20.87;14.60;;;20.00;1.00;;;;;;4993893;28;20174;-75
2022/07/22 03:27:05;;;;;;;16.20;11.80;;;19.90;1.00;;;;;;5058003;22;20705;-77
2022/07/22 03:29:30;;;;;;;15.93;11.77;;;19.90;1.00;;;;;;5051029;28;20215;-77
2022/07/22 03:31:56;;;;;;;18.20;12.17;;;19.90;1.00;;;;;;5068778;28;20492;-77
2022/07/22 03:34:21;;;;;;;13.57;11.50;;;19.90;1.00;;;;;;5059310;22;20245;-77
2022/07/22 03:36:47;;;;;;;18.40;13.20;;;19.90;1.00;;;;;;5046186;28;20695;-77
2022/07/22 03:41:48;;;;;;;15.87;12.50;;;19.90;1.00;;;;;;5003288;22;20698;-77
2022/07/22 03:44:13;;;;;;;16.70;12.40;;;19.90;1.00;;;;;;5037954;28;20409;-77
2022/07/22 03:46:39;;;;;;;14.97;12.27;;;19.90;1.00;;;;;;5045899;28;20169;-77
2022/07/22 03:49:04;;;;;;;17.63;13.67;;;19.90;1.00;;;;;;5048254;28;20731;-77
2022/07/22 03:51:30;;;;;;;16.00;13.07;;;19.90;1.00;;;;;;5037721;28;20205;-77
2022/07/22 03:53:55;;;;;;;19.53;13.60;;;19.90;1.00;;;;;;5043102;28;20240;-77
2022/07/22 03:56:21;;;;;;;17.50;13.13;;;19.80;1.00;;;;;;5111476;22;1045610;-77
2022/07/22 03:58:46;;;;;;;18.30;13.10;;;19.70;1.00;;;;;;5067019;28;20206;-77
2022/07/22 04:01:12;;;;;;;19.83;13.90;;;19.70;1.00;;;;;;5047729;28;20587;-76
2022/07/22 04:03:37;;;;;;;18.30;12.83;;;19.80;1.00;;;;;;5047883;28;20215;-78
2022/07/22 04:06:03;;;;;;;18.30;13.50;;;19.80;1.00;;;;;;5043682;28;20218;-77
2022/07/22 04:08:28;;;;;;;17.90;13.27;;;19.80;1.00;;;;;;5048575;28;20181;-78
2022/07/22 04:10:54;;;;;;;14.97;12.57;;;19.70;1.60;;;;;;5047669;28;20200;-77
2022/07/22 04:13:20;;;;;;;16.70;12.27;;;;;;;;;;5082106;23;20670;-77
2022/07/22 04:15:45;;;;;;;15.87;12.77;;;19.70;3.80;;;;;;5110118;22;20233;-77
2022/07/22 04:18:15;;;;;;;16.57;13.30;;;19.70;5.40;;;;;;5052408;28;20462;-77
2022/07/22 04:20:40;;;;;;;16.27;13.73;;;19.80;5.80;;;;;;5083326;22;20586;-76
2022/07/22 04:23:06;;;;;;;18.47;14.53;;;19.90;5.00;;;;;;5078227;23;20554;-77
2022/07/22 04:25:31;;;;;;;16.77;13.20;;;19.80;5.60;;;;;;5105016;22;20220;-77
2022/07/22 04:27:57;;;;;;;15.77;13.27;;;19.80;7.30;;;;;;5075429;23;20435;-77
2022/07/22 04:30:22;;;;;;;23.43;14.10;;;19.80;4.70;;;;;;5273924;22;20504;-76
2022/07/22 04:32:48;;;;;;;16.67;14.03;;;19.70;6.40;;;;;;5028044;28;20204;-78
2022/07/22 04:35:13;;;;;;;17.03;13.17;;;19.90;6.90;;;;;;5009562;28;20192;-78
2022/07/22 04:37:39;;;;;;;17.90;13.33;;;19.90;5.00;;;;;;5002038;28;20176;-78
2022/07/22 04:40:05;;;;;;;15.70;13.10;;;19.90;5.50;;;;;;5023766;28;20182;-78
2022/07/22 04:42:30;;;;;;;18.47;13.43;;;19.80;4.90;;;;;;5038768;23;20170;-76
2022/07/22 04:44:56;;;;;;;22.60;13.80;;;19.90;7.00;;;;;;5423225;22;20899;-77
2022/07/22 04:47:21;;;;;;;22.00;14.67;;;19.90;5.50;;;;;;5020014;28;20709;-78
2022/07/22 04:49:47;;;;;;;18.07;14.00;;;19.90;6.40;;;;;;5022725;28;20185;-77
2022/07/22 04:54:50;;;;;;;17.00;13.67;;;19.90;8.00;;;;;;5100968;22;20232;-77
2022/07/22 04:57:16;;;;;;;18.60;14.17;;;19.90;6.60;;;;;;5174541;22;20506;-77
2022/07/22 04:59:42;;;;;;;18.23;14.00;;;20.00;6.60;;;;;;4992639;28;20246;-76
2022/07/22 05:02:07;;;;;;;18.33;13.27;;;19.90;5.30;;;;;;4994027;28;20202;-78
2022/07/22 05:04:33;;;;;;;16.83;13.07;;;20.00;5.00;;;;;;4993088;28;20553;-78
2022/07/22 05:06:58;;;;;;;19.70;14.07;;;20.10;3.20;;;;;;4995603;28;20222;-77
2022/07/22 05:09:24;;;;;;;17.10;12.97;;;20.20;2.50;;;;;;5361974;23;20282;-78
2022/07/22 05:11:50;;;;;;;18.40;13.53;;;20.20;1.00;;;;;;5194363;22;21254;-78
2022/07/22 05:14:15;;;;;;;15.80;12.20;;;20.20;2.50;;;;;;5011747;28;20597;-77
2022/07/22 05:16:41;;;;;;;14.60;12.27;;;20.20;2.00;;;;;;5007179;28;20181;-79
2022/07/22 05:21:34;;;;;;;17.67;12.30;;;20.30;1.00;;;;;;5138172;22;20220;-76
2022/07/22 05:24:00;;;;;;;18.70;12.63;;;20.30;1.00;;;;;;5012566;28;20964;-77
2022/07/22 05:26:28;;;;;;;16.43;12.03;;;20.40;1.00;;;;;;5012182;28;20177;-76
2022/07/22 05:31:23;;;;;;;15.37;11.60;;;20.50;1.00;;;;;;5165954;23;21997;-76
2022/07/22 05:33:49;;;;;;;15.70;11.20;;;20.60;1.00;;;;;;5013900;28;20420;-78
2022/07/22 05:36:14;;;;;;;14.80;12.10;;;20.60;1.00;;;;;;5011649;28;20178;-78
2022/07/22 05:38:40;;;;;;;19.50;11.53;;;20.70;1.00;;;;;;5030795;28;20348;-78
2022/07/22 05:41:05;;;;;;;19.10;12.10;;;20.70;1.00;;;;;;5028467;28;20562;-78
2022/07/22 05:43:31;;;;;;;13.77;11.57;;;20.70;1.00;;;;;;5058196;28;20185;-77
2022/07/22 05:45:57;;;;;;;15.27;11.00;;;20.90;1.00;;;;;;5057213;28;20177;-78
2022/07/22 05:48:22;;;;;;;15.20;11.50;;;20.90;1.00;;;;;;5056515;28;20173;-77
2022/07/22 05:50:48;;;;;;;14.20;10.80;;;20.90;1.00;;;;;;5031993;28;20427;-78
2022/07/22 05:53:14;;;;;;;17.57;11.60;;;21.10;1.00;;;;;;5036735;28;20648;-78
2022/07/22 05:55:39;;;;;;;15.57;11.27;;;21.20;1.00;;;;;;5046747;28;20271;-79
2022/07/22 05:58:05;;;;;;;15.87;12.27;;;21.30;1.00;;;;;;5063687;23;20259;-78
2022/07/22 06:00:30;;;;;;;14.87;11.50;;;21.40;1.00;;;;;;5343636;22;20231;-78
2022/07/22 06:08:19;;;;;;;14.93;11.97;;;20.40;1.00;;;;;;5097933;23;20499;-77
2022/07/22 06:10:45;;;;;;;14.83;11.43;;;21.40;1.00;;;;;;4958465;28;20550;-77
2022/07/22 06:13:10;;;;;;;16.60;12.27;;;21.30;1.00;;;;;;4953723;28;20627;-77
2022/07/22 06:15:36;;;;;;;20.23;11.43;;;21.40;1.00;;;;;;4955784;28;20202;-77
2022/07/22 06:18:01;;;;;;;16.20;11.20;;;21.40;1.00;;;;;;4958144;28;20446;-79
2022/07/22 06:20:27;;;;;;;17.17;11.10;;;21.50;1.00;;;;;;4961296;28;20482;-78
2022/07/22 06:22:52;;;;;;;18.10;12.07;;;21.60;1.00;;;;;;4940796;29;20195;-77
2022/07/22 06:25:18;;;;;;;15.93;11.13;;;21.70;1.00;;;;;;4949728;28;20226;-78
2022/07/22 06:27:43;;;;;;;16.80;11.00;;;21.70;1.00;;;;;;4950265;28;20181;-78
2022/07/22 06:30:09;;;;;;;14.60;10.80;;;21.70;1.00;;;;;;4942802;28;20327;-77
2022/07/22 06:32:35;;;;;;;14.20;10.50;;;21.80;1.00;;;;;;4949523;28;20231;-77
2022/07/22 06:35:02;;;;;;;15.33;10.17;;;21.80;1.00;;;;;;4950992;28;20436;-79
2022/07/22 06:40:03;;;;;;;14.87;10.33;;;22.10;1.00;;;;;;5998460;23;21488;-79
2022/07/22 06:42:29;;;;;;;12.80;9.67;;;22.10;1.00;;;;;;5440896;23;20505;-78
2022/07/22 06:44:55;;;;;;;13.00;9.97;;;22.20;1.00;;;;;;4970981;28;20415;-78
2022/07/22 06:47:20;;;;;;;14.43;10.90;;;22.30;1.00;;;;;;4982550;28;20180;-79
2022/07/22 06:49:46;;;;;;;13.20;10.13;;;22.20;1.00;;;;;;4971135;28;20210;-79
2022/07/22 06:54:39;;;;;;;17.77;11.23;;;22.60;1.00;;;;;;5243616;23;20578;-77
2022/07/22 06:57:05;;;;;;;13.67;10.57;;;22.10;1.00;;;;;;4970309;28;20485;-78
2022/07/22 06:59:30;;;;;;;12.63;9.60;;;22.20;1.00;;;;;;4970576;28;20226;-77
2022/07/22 07:01:56;;;;;;;13.90;10.60;;;22.30;1.00;;;;;;4965957;28;20184;-77
2022/07/22 07:04:21;;;;;;;14.73;9.70;;;22.50;1.00;;;;;;4966076;28;20670;-78
2022/07/22 07:06:47;;;;;;;13.63;10.23;;;22.80;1.00;;;;;;4962112;28;20681;-77
2022/07/22 07:09:12;;;;;;;12.47;9.97;;;22.90;1.00;;;;;;4969235;28;20352;-77
2022/07/22 07:11:38;;;;;;;12.20;9.13;;;23.10;1.00;;;;;;4970534;28;20187;-77
2022/07/22 07:14:03;;;;;;;13.53;8.77;;;23.20;1.00;;;;;;4965378;28;20703;-78
2022/07/22 07:16:29;;;;;;;12.07;9.73;;;23.40;1.00;;;;;;4969589;28;20179;-77
2022/07/22 07:18:55;;;;;;;12.27;9.63;;;23.50;1.00;;;;;;4971003;28;20211;-77
2022/07/22 07:21:20;;;;;;;12.37;9.60;;;23.60;1.00;;;;;;4970181;28;20657;-78
2022/07/22 07:23:46;;;;;;;12.90;9.77;;;23.70;1.00;;;;;;4969475;28;20218;-77
2022/07/22 07:26:13;;;;;;;16.77;10.73;;;23.70;1.00;;;;;;4971501;28;20171;-77
2022/07/22 07:28:38;;;;;;;10.60;9.40;;;24.00;1.00;;;;;;4970414;28;20178;-78
2022/07/22 07:31:04;;;;;;;17.27;10.00;;;24.40;1.00;;;;;;4966741;28;20427;-77
2022/07/22 07:33:30;;;;;;;12.57;9.97;;;24.80;1.00;;;;;;4970868;28;20191;-77
2022/07/22 07:35:55;;;;;;;13.13;10.50;;;24.80;1.00;;;;;;4969328;28;20183;-77
2022/07/22 07:38:21;;;;;;;12.13;10.17;;;24.90;1.00;;;;;;4962725;28;20198;-78
2022/07/22 07:40:46;;;;;;;14.17;11.00;;;24.70;1.00;;;;;;4970487;28;20167;-78
2022/07/22 07:43:12;;;;;;;13.00;10.33;;;24.80;1.00;;;;;;4971022;28;20179;-77
2022/07/22 07:45:37;;;;;;;13.00;10.57;;;24.90;1.00;;;;;;4968761;28;20199;-79
2022/07/22 07:48:04;;;;;;;14.63;10.87;;;25.10;1.00;;;;;;4970285;28;20181;-77
2022/07/22 07:50:29;;;;;;;13.10;9.80;;;25.20;1.00;;;;;;4970511;28;20262;-77
2022/07/22 07:52:56;;;;;;;14.77;10.20;;;25.40;1.00;;;;;;4969997;28;20565;-78
2022/07/22 07:55:21;;;;;;;12.50;9.70;;;25.60;1.00;;;;;;4984880;28;20207;-78
2022/07/22 07:57:51;;;;;;;14.33;9.67;;;25.70;1.00;;;;;;4969615;28;20427;-78
2022/07/22 08:00:20;;;;;;;13.67;10.73;;;25.80;1.00;;;;;;4968460;28;20211;-78
2022/07/22 08:02:45;;;;;;;11.77;10.57;;;25.60;1.00;;;;;;4967658;28;20427;-77
2022/07/22 08:05:11;;;;;;;10.90;9.50;;;25.60;1.00;;;;;;4963937;28;20541;-78
2022/07/22 08:07:37;;;;;;;13.37;9.57;;;25.80;1.00;;;;;;4970313;28;20199;-77
2022/07/22 08:10:05;;;;;;;12.97;9.77;;;26.20;1.00;;;;;;4969165;28;20211;-78
2022/07/22 08:12:30;;;;;;;12.07;10.30;;;26.60;1.00;;;;;;4968892;28;20222;-77
2022/07/22 08:14:56;;;;;;;13.60;10.10;;;26.60;1.00;;;;;;4967560;28;20837;-77
2022/07/22 08:17:22;;;;;;;12.00;9.37;;;;;;;;;;4984769;28;20207;-78
2022/07/22 08:19:47;;;;;;;10.70;9.60;;;27.00;1.00;;;;;;4967103;28;20282;-78
2022/07/22 08:22:13;;;;;;;11.17;9.50;;;27.30;1.00;;;;;;4972824;28;20997;-77
2022/07/22 08:24:38;;;;;;;14.70;11.20;;;27.50;1.00;;;;;;4968303;28;20204;-78
2022/07/22 08:27:04;;;;;;;12.07;10.77;;;27.60;1.00;;;;;;4973543;28;20175;-78
2022/07/22 08:29:30;;;;;;;14.90;9.50;;;27.60;1.00;;;;;;4966509;28;20564;-78
2022/07/22 08:31:55;;;;;;;13.13;10.60;;;27.80;1.00;;;;;;4971446;28;20206;-77
2022/07/22 08:34:21;;;;;;;13.73;9.60;;;28.10;1.00;;;;;;4973002;28;20285;-78
2022/07/22 08:36:46;;;;;;;13.70;10.47;;;28.30;1.00;;;;;;4973192;28;20211;-78
2022/07/22 08:39:12;;;;;;;11.60;9.90;;;28.40;1.00;;;;;;4972113;28;20207;-78
2022/07/22 08:41:39;;;;;;;12.57;11.03;;;28.40;1.00;;;;;;4973232;28;20255;-78
2022/07/22 08:44:05;;;;;;;13.20;10.50;;;28.30;1.00;;;;;;4973181;28;20229;-78
2022/07/22 08:46:31;;;;;;;11.73;9.30;;;28.10;1.00;;;;;;4971791;28;20555;-77
2022/07/22 08:49:00;;;;;;;11.37;10.10;;;28.30;1.00;;;;;;4986788;28;20225;-78
2022/07/22 08:51:25;;;;;;;13.63;9.80;;;28.70;1.00;;;;;;4973169;28;20167;-78
2022/07/22 08:53:51;;;;;;;12.77;9.80;;;29.10;1.00;;;;;;4971921;28;20234;-78
2022/07/22 08:56:16;;;;;;;12.43;9.77;;;29.40;1.00;;;;;;4967793;28;20179;-77
2022/07/22 08:58:42;;;;;;;13.23;9.20;;;30.00;1.00;;;;;;4966408;28;20563;-77
2022/07/22 09:01:13;;;;;;;10.50;9.40;;;30.70;1.00;;;;;;4971165;28;20190;-79
2022/07/22 09:03:56;;;;;;;11.52;9.32;;;32.90;1.00;;;;;;4971995;28;20266;-78
2022/07/22 09:06:25;;;;;;;10.20;9.10;;;33.10;1.00;;;;;;4964509;28;20184;-78
2022/07/22 09:08:59;;;;;;;9.90;8.25;;;34.70;1.00;;;;;;4971429;28;20179;-79
2022/07/22 09:11:28;;;;;;;9.50;8.15;;;35.70;1.00;;;;;;4973376;28;20315;-79
2022/07/22 09:13:55;;;;;;;9.80;8.68;;;36.60;1.00;;;;;;4970437;28;20206;-79
2022/07/22 09:16:45;;;;;;;10.18;8.60;;;37.10;1.00;;;;;;4970714;28;20310;-79
2022/07/22 09:19:11;;;;;;;9.23;7.82;;;37.70;1.00;;;;;;4973709;28;20700;-80
2022/07/22 09:21:40;;;;;;;8.75;7.85;;;38.10;1.00;;;;;;4966034;28;20327;-79
2022/07/22 09:24:07;;;;;;;9.68;7.95;;;38.50;1.00;;;;;;4972961;28;20191;-79
2022/07/22 09:26:35;;;;;;;8.60;7.80;;;38.80;1.00;;;;;;4972856;28;20167;-79
2022/07/22 09:29:02;;;;;;;10.13;7.80;;;38.50;1.00;;;;;;4973290;28;20202;-80
2022/07/22 09:31:30;;;;;;;9.45;7.30;;;38.70;1.00;;;;;;4966676;28;20215;-79
2022/07/22 09:33:57;;;;;;;8.57;7.50;;;39.00;1.00;;;;;;4972962;28;20543;-79
2022/07/22 09:36:23;;;;;;;9.05;7.55;;;39.50;1.00;;;;;;4987443;28;20641;-79
2022/07/22 09:38:49;;;;;;;12.40;8.32;;;39.90;1.00;;;;;;4974216;28;20298;-79
2022/07/22 09:41:15;;;;;;;8.65;7.63;;;40.00;1.00;;;;;;4971816;28;20190;-79
2022/07/22 09:43:40;;;;;;;8.52;7.32;;;40.00;1.00;;;;;;4988047;28;20207;-79
2022/07/22 09:46:06;;;;;;;8.68;7.35;;;39.60;1.00;;;;;;4971169;28;20659;-80
2022/07/22 09:48:32;;;;;;;8.05;7.32;;;40.10;1.00;;;;;;4988545;28;20677;-80
2022/07/22 09:50:58;;;;;;;8.50;7.63;;;40.60;1.00;;;;;;4971073;28;20190;-79
2022/07/22 09:53:27;;;;;;;11.18;8.18;;;40.20;1.00;;;;;;4970194;28;20681;-80
2022/07/22 09:55:53;;;;;;;10.23;7.88;;;40.20;1.00;;;;;;4969277;28;20223;-80
2022/07/22 09:58:19;;;;;;;12.82;7.70;;;40.30;1.00;;;;;;4991099;28;20525;-80
2022/07/22 10:00:44;;;;;;;8.52;7.68;;;40.60;1.00;;;;;;4968240;28;20188;-80
2022/07/22 10:03:18;;;;;;;9.57;7.70;;;41.20;1.00;;;;;;4979606;28;20175;-80
2022/07/22 10:05:43;;;;;;;23.65;9.52;;;41.20;1.00;;;;;;4974423;28;20199;-80
2022/07/22 10:08:09;;;;;;;11.45;7.85;;;41.70;1.00;;;;;;4967266;28;20184;-80
2022/07/22 10:10:36;;;;;;;8.10;7.30;;;41.10;1.00;;;;;;4974857;28;20171;-80
2022/07/22 10:13:04;;;;;;;10.32;7.90;;;40.70;1.00;;;;;;4989375;28;20268;-80
2022/07/22 10:15:31;;;;;;;21.15;8.32;;;41.10;1.00;;;;;;4963940;28;20565;-80
2022/07/22 10:18:00;;;;;;;9.77;7.90;;;41.30;1.00;;;;;;4973457;28;20230;-80
2022/07/22 10:20:28;;;;;;;9.13;8.23;;;42.00;1.00;;;;;;4973694;28;20175;-79
2022/07/22 10:23:06;;;;;;;10.88;7.68;;;42.60;1.00;;;;;;4973171;28;20190;-80
2022/07/22 10:25:47;;;;;;;8.85;7.70;;;42.20;1.00;;;;;;4974633;28;20199;-80
2022/07/22 10:28:25;;;;;;;12.68;7.55;;;42.30;1.00;;;;;;4971277;28;20724;-80
2022/07/22 10:30:50;;;;;;;9.10;7.40;;;43.00;1.00;;;;;;4972816;28;20187;-80
2022/07/22 10:33:19;;;;;;;8.57;7.28;;;43.40;1.00;;;;;;4969876;28;20191;-79
2022/07/22 10:36:03;;;;;;;9.13;7.30;;;43.60;1.00;;;;;;4974675;28;20668;-80
2022/07/22 10:38:30;;;;;;;9.80;7.47;;;43.40;1.00;;;;;;4974097;28;20199;-80
2022/07/22 10:40:59;;;;;;;9.50;8.30;;;43.90;1.00;;;;;;4988267;28;20176;-80
2022/07/22 10:43:25;;;;;;;7.97;7.18;;;43.90;1.00;;;;;;4971398;28;20176;-80
2022/07/22 10:45:53;;;;;;;10.85;7.95;;;43.80;1.00;;;;;;4976075;28;20208;-80
2022/07/22 10:48:21;;;;;;;9.70;8.30;;;42.60;1.00;;;;;;4979579;28;20206;-81
2022/07/22 10:50:55;;;;;;;9.57;7.13;;;42.50;1.00;;;;;;4981806;28;20179;-80
2022/07/22 10:53:54;;;;;;;8.93;8.02;;;43.20;1.00;;;;;;4990754;28;20294;-79
2022/07/22 10:56:26;;;;;;;8.80;7.15;;;43.80;1.00;;;;;;4981898;28;20211;-80
2022/07/22 10:58:53;;;;;;;8.05;7.35;;;44.10;1.00;;;;;;4970419;28;20195;-80
2022/07/22 11:01:23;;;;;;;8.85;7.97;;;43.30;1.00;;;;;;4964815;28;20189;-80
2022/07/22 11:03:49;;;;;;;8.95;7.70;;;43.80;1.00;;;;;;4973650;28;20233;-80
2022/07/22 11:06:29;;;;;;;8.10;7.30;;;44.90;1.00;;;;;;4973127;28;20250;-79
2022/07/22 11:09:01;;;;;;;11.88;7.28;;;45.80;1.00;;;;;;4974427;28;20685;-80
2022/07/22 11:11:49;;;;;;;11.27;8.55;;;46.00;1.00;;;;;;4987384;28;20183;-80
2022/07/22 11:14:20;;;;;;;8.98;6.93;;;46.00;1.00;;;;;;4969211;28;20192;-80
2022/07/22 11:16:48;;;;;;;8.00;7.20;;;45.60;1.00;;;;;;4963832;28;20176;-80
2022/07/22 11:19:13;;;;;;;8.32;6.97;;;45.60;1.00;;;;;;4974403;28;20200;-80
2022/07/22 11:21:39;;;;;;;8.30;7.00;;;45.90;1.00;;;;;;4972285;28;20193;-80
2022/07/22 11:24:07;;;;;;;7.85;7.05;;;45.00;1.00;;;;;;4970996;28;20690;-80
2022/07/22 11:26:40;;;;;;;8.00;6.80;;;45.40;1.00;;;;;;4970622;28;20186;-80
2022/07/22 11:29:07;;;;;;;10.35;6.47;;;45.30;1.00;;;;;;4972902;28;20180;-80
2022/07/22 11:31:32;;;;;;;8.30;7.43;;;45.30;1.00;;;;;;4986198;28;20242;-80
2022/07/22 11:34:11;;;;;;;8.20;6.45;;;45.50;1.00;;;;;;4972276;28;20206;-80
2022/07/22 11:36:40;;;;;;;7.95;6.90;;;45.90;1.00;;;;;;4971935;28;20206;-79
2022/07/22 11:39:07;;;;;;;8.18;7.30;;;45.70;1.00;;;;;;4974084;28;20215;-80
2022/07/22 11:41:32;;;;;;;8.15;7.35;;;46.10;1.00;;;;;;4966136;28;20195;-80
2022/07/22 11:44:01;;;;;;;8.55;7.15;;;46.60;1.00;;;;;;4974937;28;20194;-79
2022/07/22 11:46:28;;;;;;;10.05;6.82;;;46.80;1.00;;;;;;4970025;28;20315;-80
2022/07/22 11:48:54;;;;;;;7.53;6.72;;;46.90;1.00;;;;;;4964932;28;20175;-80
2022/07/22 11:51:20;;;;;;;8.23;7.22;;;46.80;1.00;;;;;;4962188;28;20179;-80
2022/07/22 11:53:46;;;;;;;9.10;6.85;;;46.60;1.00;;;;;;4974741;28;20205;-80
2022/07/22 11:56:12;;;;;;;8.45;7.32;;;46.50;1.00;;;;;;4990471;28;20202;-80
2022/07/22 11:58:55;;;;;;;7.50;6.68;;;46.50;1.00;;;;;;4992936;28;20263;-80
2022/07/22 12:01:26;;;;;;;8.25;7.10;;;46.60;1.00;;;;;;4989828;28;20242;-79
2022/07/22 12:04:01;;;;;;;8.18;6.97;;;46.70;1.00;;;;;;4977963;28;20278;-80
2022/07/22 12:06:28;;;;;;;8.45;6.65;;;47.10;1.00;;;;;;4977351;28;20262;-79
2022/07/22 12:09:03;;;;;;;9.90;6.50;;;47.40;1.00;;;;;;4977582;28;20191;-80
2022/07/22 12:11:29;;;;;;;7.18;6.15;;;48.00;1.00;;;;;;4971390;28;20197;-80
2022/07/22 12:13:55;;;;;;;12.55;6.78;;;47.90;1.00;;;;;;4968164;28;20222;-80
2022/07/22 12:16:26;;;;;;;12.27;6.80;;;46.90;1.00;;;;;;4966041;28;20175;-80
2022/07/22 12:19:12;;;;;;;8.07;6.47;;;46.00;1.00;;;;;;4976487;28;20211;-80
2022/07/22 12:21:51;;;;;;;8.18;6.07;;;46.30;1.00;;;;;;4974485;28;20195;-80
2022/07/22 12:24:28;;;;;;;6.80;6.10;;;47.10;1.00;;;;;;4969922;28;20242;-80
2022/07/22 12:26:55;;;;;;;7.97;6.82;;;47.60;1.00;;;;;;4977733;28;20177;-80
2022/07/22 12:29:27;;;;;;;7.63;6.43;;;47.70;1.00;;;;;;4974558;28;20239;-80
2022/07/22 12:31:59;;;;;;;7.47;6.20;;;46.90;1.00;;;;;;4975559;28;20646;-80
2022/07/22 12:34:33;;;;;;;8.40;6.63;;;46.00;1.00;;;;;;4977744;28;20213;-80
2022/07/22 12:37:02;;;;;;;12.52;5.95;;;45.80;1.00;;;;;;4973861;28;20183;-80
2022/07/22 12:39:28;;;;;;;7.07;6.07;;;46.40;1.00;;;;;;4975538;28;20233;-80
2022/07/22 12:41:54;;;;;;;10.35;6.10;;;47.40;1.00;;;;;;4989683;28;20214;-80
2022/07/22 12:44:25;;;;;;;8.77;6.22;;;47.50;1.00;;;;;;4988511;28;20890;-79
2022/07/22 12:46:54;;;;;;;7.55;5.53;;;46.60;1.00;;;;;;4988905;28;20180;-81
2022/07/22 12:49:22;;;;;;;6.35;5.72;;;46.10;1.00;;;;;;4987270;28;20215;-80
2022/07/22 12:52:11;;;;;;;17.50;6.88;;;46.10;1.00;;;;;;4988326;28;20211;-80
2022/07/22 12:54:38;;;;;;;10.27;6.10;;;47.20;1.00;;;;;;5005268;23;20209;-79
2022/07/22 12:57:05;;;;;;;8.23;6.30;;;47.00;1.00;;;;;;4995798;28;20179;-79
2022/07/22 12:59:31;;;;;;;9.32;5.43;;;48.10;1.00;;;;;;4980696;28;20214;-79
2022/07/22 13:01:57;;;;;;;7.40;5.63;;;48.00;1.00;;;;;;4971815;28;20179;-79
2022/07/22 13:04:22;;;;;;;6.93;5.78;;;48.00;1.00;;;;;;4991347;28;20198;-79